Fort Meade, MD (20755)

11:52 PM EDT on July 26, 2016 (GMT -0400)
Parkside | | Change Station

Elev 256 ft 39.13 °N, 76.75 °W | Updated 8 minutes ago

Clear
Clear
79.2 °F
Feels Like 83 °F
N
0.0
Wind Variable Wind from South

Today
High -- | Low -- °F
--% Chance of Precip.
Yesterday
High -- | Low -- °F
Precip. -- in
Pressure 29.95 in
Visibility 5.0 miles
Clouds Clear
Heat Index 83 °F
Dew Point 74 °F
Humidity 83%
Rainfall 0.00 in
Snow Depth Not available.
6:02 AM 8:23 PM
Waning Gibbous, 48% visible
METAR KFME 270342Z AUTO 00000KT 5SM CLR 23/22 A2995 RMK AO1
Pressure 29.95 in
Visibility 5.0 miles
Clouds Clear
Heat Index 83 °F
Dew Point 74 °F
Humidity 83%
Rainfall 0.00 in
Snow Depth Not available.
6:02 AM 8:23 PM
Waning Gibbous, 48% visible
METAR KFME 270342Z AUTO 00000KT 5SM CLR 23/22 A2995 RMK AO1

10-Day Weather Forecast

Almanac

Astronomy

Jul. 26, 2016 Rise Set
Actual Time
Civil Twilight
Nautical Twilight
Astronomical Twilight
Moon
Length of Visible Light
Length of Day
Tomorrow will be .
, % of the Moon is Illuminated

Today's Extremes

State Highs State Lows

Community

WunderPhotos

Upload Photos

1,927,797 photos uploaded!

WunderBlog® & News

Nearby

Air Quality

  Air Quality AQ Index Pollutant
Not available.

Snow Depth

Station Depth Elevation

Earthquake Activity

City Distance Mag. Time & Date
Minimum magnitude displayed is 2.5.

Coastal Water Temperatures

Place Temperature

Stations

Nearby Weather Stations

Station Location Temp. Windchill Dew Point Humidity Wind Precip. Elev Updated Type
                   

Watches & Warnings

There are currently no watches in effect.